Time;durP1;ratioP1;P1;durP2;ratioP2;P2;SDS_P1;SDS_P2;PMS_P1;PMS_P2;Temp;Humidity;BMP_temperature;BMP_pressure;BME280_temperature;BME280_humidity;BME280_pressure;Samples;Min_cycle;Max_cycle;Signal;HPM_P1;HPM_P2
2021/06/06 00:01:50;;;;;;;0.70;0.30;;;23.50;48.90;;;;;;5014305;28;20401;-59
2021/06/06 00:04:19;;;;;;;0.50;0.30;;;23.50;48.80;;;;;;5014261;28;20435;-59
2021/06/06 00:06:45;;;;;;;0.82;0.30;;;23.50;48.70;;;;;;5014397;28;20404;-58
2021/06/06 00:09:14;;;;;;;0.97;0.40;;;23.50;48.90;;;;;;5014410;28;20385;-59
2021/06/06 00:11:47;;;;;;;0.55;0.20;;;23.50;48.90;;;;;;5013065;28;20474;-59
2021/06/06 00:14:17;;;;;;;0.77;0.30;;;23.50;49.00;;;;;;5013990;28;20392;-59
2021/06/06 00:16:54;;;;;;;1.38;0.20;;;23.50;48.90;;;;;;5014207;28;20814;-59
2021/06/06 00:19:21;;;;;;;0.43;0.17;;;23.50;49.00;;;;;;5014405;28;20451;-59
2021/06/06 00:21:47;;;;;;;1.20;0.20;;;23.40;48.90;;;;;;5014328;28;20392;-59
2021/06/06 00:24:16;;;;;;;1.10;0.20;;;23.40;49.00;;;;;;5014141;28;20397;-59
2021/06/06 00:26:42;;;;;;;0.80;0.40;;;23.40;49.00;;;;;;5014164;28;20392;-59
2021/06/06 00:29:08;;;;;;;0.68;0.20;;;23.40;49.00;;;;;;5014273;28;20393;-59
2021/06/06 00:31:34;;;;;;;0.50;0.20;;;23.40;49.00;;;;;;5014141;28;20419;-59
2021/06/06 00:33:59;;;;;;;0.77;0.20;;;23.40;49.00;;;;;;5013833;28;20396;-60
2021/06/06 00:36:26;;;;;;;0.50;0.20;;;23.40;49.00;;;;;;5013745;28;20427;-58
2021/06/06 00:38:51;;;;;;;0.55;0.20;;;23.40;48.90;;;;;;5014027;28;20733;-59
2021/06/06 00:41:19;;;;;;;0.57;0.20;;;23.40;49.10;;;;;;5013880;28;20405;-60
2021/06/06 00:43:46;;;;;;;0.40;0.10;;;23.40;49.00;;;;;;5013798;28;20877;-58
2021/06/06 00:46:13;;;;;;;0.85;0.20;;;23.40;48.90;;;;;;5013441;28;20430;-59
2021/06/06 00:48:38;;;;;;;0.90;0.20;;;23.40;49.00;;;;;;5013749;28;20393;-59
2021/06/06 00:51:20;;;;;;;0.67;0.20;;;23.40;49.00;;;;;;5013838;28;20523;-58
2021/06/06 00:53:55;;;;;;;0.70;0.30;;;23.40;49.00;;;;;;5013746;28;20873;-58
2021/06/06 00:56:24;;;;;;;0.43;0.20;;;23.40;49.00;;;;;;5012898;28;20412;-58
2021/06/06 00:58:52;;;;;;;0.60;0.20;;;23.40;48.90;;;;;;5013229;28;20393;-58
2021/06/06 01:01:18;;;;;;;0.50;0.20;;;23.40;49.00;;;;;;5012175;28;20900;-59
2021/06/06 01:03:48;;;;;;;0.37;0.20;;;23.30;48.90;;;;;;5013069;28;20808;-58
2021/06/06 01:06:33;;;;;;;0.60;0.20;;;23.30;48.90;;;;;;5013093;28;20395;-58
2021/06/06 01:09:01;;;;;;;1.40;0.20;;;23.30;49.50;;;;;;5013475;28;20377;-59
2021/06/06 01:11:30;;;;;;;0.60;0.22;;;23.30;49.00;;;;;;5012737;28;20393;-59
2021/06/06 01:14:04;;;;;;;0.60;0.20;;;23.30;49.00;;;;;;5013309;28;20399;-59
2021/06/06 01:16:49;;;;;;;0.50;0.20;;;23.30;49.00;;;;;;5013003;28;20417;-61
2021/06/06 01:19:32;;;;;;;1.00;0.30;;;23.30;49.10;;;;;;5013326;28;20395;-59
2021/06/06 01:22:21;;;;;;;0.68;0.28;;;23.30;49.00;;;;;;5013051;28;20379;-61
2021/06/06 01:25:04;;;;;;;0.40;0.20;;;23.30;49.10;;;;;;5013161;28;20393;-59
2021/06/06 01:27:31;;;;;;;0.38;0.10;;;23.30;49.00;;;;;;5012916;28;20896;-59
2021/06/06 01:30:14;;;;;;;0.30;0.20;;;23.30;49.00;;;;;;5013015;28;20869;-59
2021/06/06 01:32:47;;;;;;;0.88;0.20;;;23.30;49.00;;;;;;5012887;28;20389;-59
2021/06/06 01:35:33;;;;;;;0.38;0.13;;;23.30;49.00;;;;;;5012937;28;20857;-59
2021/06/06 01:38:16;;;;;;;0.68;0.20;;;23.30;49.00;;;;;;5012665;28;20417;-59
2021/06/06 01:40:46;;;;;;;0.22;0.10;;;23.30;49.00;;;;;;5012881;28;20408;-59
2021/06/06 01:43:16;;;;;;;0.68;0.30;;;23.30;49.00;;;;;;5012597;28;20882;-59
2021/06/06 01:45:54;;;;;;;0.50;0.13;;;23.20;48.90;;;;;;5012847;28;20528;-60
2021/06/06 01:48:19;;;;;;;0.30;0.10;;;23.20;48.90;;;;;;5010831;28;20924;-59
2021/06/06 01:51:06;;;;;;;0.63;0.20;;;23.20;48.90;;;;;;5012818;28;20389;-58
2021/06/06 01:53:34;;;;;;;0.60;0.28;;;23.20;48.90;;;;;;5012566;28;20893;-59
2021/06/06 01:56:03;;;;;;;0.50;0.20;;;23.20;48.90;;;;;;5012277;28;20444;-59
2021/06/06 01:58:30;;;;;;;0.35;0.10;;;23.20;48.90;;;;;;5012227;28;20401;-59
2021/06/06 02:01:09;;;;;;;0.37;0.20;;;23.20;48.90;;;;;;5012618;28;20397;-59
2021/06/06 02:03:35;;;;;;;0.30;0.20;;;23.20;48.80;;;;;;5012489;28;20393;-59
2021/06/06 02:06:02;;;;;;;0.50;0.30;;;23.20;48.80;;;;;;5012277;28;20392;-59
2021/06/06 02:08:31;;;;;;;0.40;0.20;;;23.20;48.90;;;;;;5012091;28;20935;-59
2021/06/06 02:11:18;;;;;;;0.25;0.10;;;23.20;48.90;;;;;;5012437;28;20397;-59
2021/06/06 02:13:51;;;;;;;0.35;0.10;;;23.20;48.90;;;;;;5011634;28;20408;-59
2021/06/06 02:16:22;;;;;;;0.30;0.20;;;23.20;49.50;;;;;;5011841;28;20441;-59
2021/06/06 02:18:48;;;;;;;0.40;0.20;;;23.20;49.00;;;;;;5012253;28;20425;-59
2021/06/06 02:21:14;;;;;;;0.20;0.10;;;23.20;48.90;;;;;;5011153;28;20471;-59
2021/06/06 02:23:42;;;;;;;0.30;0.10;;;23.20;48.90;;;;;;5012150;28;20392;-59
2021/06/06 02:26:32;;;;;;;0.40;0.20;;;23.20;48.90;;;;;;5011926;28;20577;-58
2021/06/06 02:29:06;;;;;;;0.50;0.20;;;23.20;49.00;;;;;;5012238;28;20482;-58
2021/06/06 02:31:46;;;;;;;0.40;0.17;;;23.10;48.90;;;;;;5012043;28;20753;-58
2021/06/06 02:34:27;;;;;;;0.30;0.15;;;23.10;48.90;;;;;;5011835;28;20393;-59
2021/06/06 02:37:01;;;;;;;0.60;0.20;;;23.10;48.90;;;;;;5012002;28;20428;-58
2021/06/06 02:39:33;;;;;;;0.55;0.20;;;23.10;48.90;;;;;;5011858;28;20458;-58
2021/06/06 02:42:12;;;;;;;0.40;0.17;;;23.10;48.90;;;;;;5010679;28;20405;-59
2021/06/06 02:44:55;;;;;;;0.30;0.10;;;23.10;48.90;;;;;;5011527;28;20439;-58
2021/06/06 02:47:25;;;;;;;0.28;0.15;;;23.10;48.90;;;;;;5011867;28;20392;-59
2021/06/06 02:49:52;;;;;;;0.17;0.10;;;23.10;48.90;;;;;;5011899;28;20388;-58
2021/06/06 02:52:21;;;;;;;0.40;0.10;;;23.10;48.90;;;;;;5011467;28;20377;-58
2021/06/06 02:55:01;;;;;;;0.50;0.20;;;23.10;48.90;;;;;;5011995;28;20400;-59
2021/06/06 02:57:31;;;;;;;0.20;0.10;;;23.10;48.80;;;;;;5011580;28;20762;-59
2021/06/06 03:00:08;;;;;;;0.50;0.20;;;23.10;48.80;;;;;;5011731;28;20472;-60
2021/06/06 03:02:44;;;;;;;0.43;0.20;;;23.10;48.90;;;;;;5011558;28;20710;-59
2021/06/06 03:05:14;;;;;;;0.43;0.20;;;23.10;48.80;;;;;;5011852;28;20423;-59
2021/06/06 03:07:46;;;;;;;0.20;0.10;;;23.10;48.90;;;;;;5011690;28;20426;-59
2021/06/06 03:10:13;;;;;;;0.27;0.10;;;23.10;48.90;;;;;;5011561;28;20500;-59
2021/06/06 03:12:39;;;;;;;0.28;0.10;;;23.10;48.90;;;;;;5011411;28;20393;-59
2021/06/06 03:15:08;;;;;;;0.68;0.20;;;23.10;48.90;;;;;;5011661;28;20892;-59
2021/06/06 03:17:38;;;;;;;0.80;0.20;;;23.10;48.90;;;;;;5011374;28;20970;-59
2021/06/06 03:20:10;;;;;;;0.30;0.10;;;23.10;48.90;;;;;;5011374;28;20948;-59
2021/06/06 03:22:39;;;;;;;0.45;0.20;;;23.10;48.90;;;;;;5011395;28;20401;-59
2021/06/06 03:25:12;;;;;;;0.20;0.10;;;23.00;48.80;;;;;;5012361;28;20381;-59
2021/06/06 03:27:41;;;;;;;0.30;0.10;;;23.00;48.90;;;;;;5015307;28;20384;-61
2021/06/06 03:30:38;;;;;;;0.50;0.20;;;23.10;48.90;;;;;;5015049;28;20718;-60
2021/06/06 03:33:11;;;;;;;0.30;0.20;;;23.00;48.90;;;;;;5013975;28;20897;-59
2021/06/06 03:35:37;;;;;;;0.50;0.20;;;23.00;48.90;;;;;;5013955;28;20408;-58
2021/06/06 03:38:03;;;;;;;0.50;0.20;;;23.00;48.80;;;;;;5015068;28;20412;-59
2021/06/06 03:40:33;;;;;;;0.30;0.20;;;23.00;48.90;;;;;;5014646;28;20425;-59
2021/06/06 03:42:59;;;;;;;0.52;0.20;;;23.00;49.00;;;;;;5015031;28;20404;-59
2021/06/06 03:45:24;;;;;;;0.30;0.20;;;23.00;48.90;;;;;;5013693;28;20427;-59
2021/06/06 03:47:51;;;;;;;0.20;0.10;;;23.00;49.00;;;;;;5015101;28;20389;-58
2021/06/06 03:50:18;;;;;;;0.40;0.17;;;23.00;49.00;;;;;;5014551;28;20967;-58
2021/06/06 03:52:44;;;;;;;0.50;0.22;;;23.00;48.90;;;;;;5015029;28;20403;-59
2021/06/06 03:55:12;;;;;;;0.40;0.15;;;23.00;48.90;;;;;;5014888;28;20479;-58
2021/06/06 03:57:38;;;;;;;0.50;0.20;;;23.00;48.90;;;;;;5014744;28;20777;-58
2021/06/06 04:00:35;;;;;;;0.38;0.20;;;23.00;48.90;;;;;;5014791;28;20412;-59
2021/06/06 04:03:01;;;;;;;0.30;0.10;;;23.00;48.90;;;;;;5015012;28;20391;-59
2021/06/06 04:05:28;;;;;;;0.30;0.20;;;23.00;49.00;;;;;;5014744;28;20397;-59
2021/06/06 04:07:54;;;;;;;0.50;0.20;;;23.00;48.90;;;;;;5014628;28;20401;-59
2021/06/06 04:10:21;;;;;;;0.30;0.20;;;23.00;48.90;;;;;;5014052;28;20392;-58
2021/06/06 04:12:47;;;;;;;0.65;0.28;;;23.00;48.90;;;;;;5014501;28;20472;-59
2021/06/06 04:15:13;;;;;;;0.80;0.20;;;22.90;48.90;;;;;;5013273;28;20489;-59
2021/06/06 04:17:39;;;;;;;0.40;0.10;;;23.00;48.90;;;;;;5013054;28;20424;-58
2021/06/06 04:20:07;;;;;;;0.30;0.13;;;22.90;48.80;;;;;;5014433;28;20475;-58
2021/06/06 04:22:32;;;;;;;0.43;0.20;;;22.90;49.00;;;;;;5013945;28;20472;-59
2021/06/06 04:24:58;;;;;;;0.20;0.10;;;22.90;48.90;;;;;;5014530;28;20468;-58
2021/06/06 04:27:24;;;;;;;0.28;0.13;;;23.00;48.90;;;;;;5014222;28;20937;-59
2021/06/06 04:29:49;;;;;;;0.30;0.20;;;22.90;48.80;;;;;;5014192;28;20435;-58
2021/06/06 04:32:17;;;;;;;0.52;0.20;;;22.90;49.00;;;;;;5013802;28;20398;-59
2021/06/06 04:34:45;;;;;;;0.40;0.28;;;22.90;49.00;;;;;;5013838;28;20393;-58
2021/06/06 04:37:13;;;;;;;0.30;0.20;;;22.90;49.00;;;;;;5013935;28;20409;-59
2021/06/06 04:39:39;;;;;;;0.30;0.20;;;22.90;48.90;;;;;;5014093;28;20381;-59
2021/06/06 04:42:09;;;;;;;0.25;0.20;;;22.90;48.90;;;;;;5014016;28;20395;-60
2021/06/06 04:44:35;;;;;;;1.05;0.20;;;22.90;49.00;;;;;;5013564;28;20470;-59
2021/06/06 04:47:03;;;;;;;0.40;0.20;;;22.90;49.00;;;;;;5013929;28;20436;-59
2021/06/06 04:49:29;;;;;;;0.28;0.10;;;22.90;49.00;;;;;;5013806;28;20393;-59
2021/06/06 04:51:55;;;;;;;0.28;0.10;;;22.90;48.90;;;;;;5013862;28;20404;-59
2021/06/06 04:54:21;;;;;;;0.30;0.13;;;22.90;48.90;;;;;;5013325;28;20396;-59
2021/06/06 04:56:46;;;;;;;0.45;0.20;;;22.90;48.90;;;;;;5013744;28;20482;-59
2021/06/06 04:59:12;;;;;;;0.40;0.20;;;22.90;48.90;;;;;;5013665;28;20389;-59
2021/06/06 05:01:38;;;;;;;0.30;0.20;;;22.90;48.90;;;;;;5013611;28;20404;-59
2021/06/06 05:04:03;;;;;;;0.50;0.10;;;22.90;49.00;;;;;;5013621;28;20731;-59
2021/06/06 05:06:29;;;;;;;0.28;0.10;;;22.90;49.00;;;;;;5012991;28;20399;-59
2021/06/06 05:08:55;;;;;;;0.30;0.10;;;22.90;48.90;;;;;;5013602;28;20761;-59
2021/06/06 05:11:20;;;;;;;0.80;0.20;;;22.90;49.00;;;;;;5013596;28;20734;-59
2021/06/06 05:13:46;;;;;;;0.37;0.13;;;22.80;49.00;;;;;;5013605;28;20814;-59
2021/06/06 05:16:12;;;;;;;0.30;0.20;;;22.90;48.90;;;;;;5013053;28;20459;-59
2021/06/06 05:18:37;;;;;;;0.20;0.20;;;22.90;48.90;;;;;;5013011;28;20393;-59
2021/06/06 05:21:04;;;;;;;0.30;0.20;;;22.90;48.90;;;;;;5012084;28;20488;-59
2021/06/06 05:23:32;;;;;;;0.43;0.10;;;22.90;48.90;;;;;;5013180;28;20433;-59
2021/06/06 05:25:58;;;;;;;0.50;0.30;;;22.80;48.90;;;;;;5013188;28;20746;-59
2021/06/06 05:28:27;;;;;;;0.32;0.10;;;22.80;48.80;;;;;;5012593;28;20400;-59
2021/06/06 05:30:52;;;;;;;0.40;0.20;;;22.80;48.90;;;;;;5013065;28;20377;-59
2021/06/06 05:33:19;;;;;;;0.40;0.20;;;22.90;48.90;;;;;;5013046;28;20397;-59
2021/06/06 05:35:45;;;;;;;0.30;0.20;;;22.80;48.90;;;;;;5012868;28;20420;-61
2021/06/06 05:38:14;;;;;;;0.30;0.10;;;22.90;49.00;;;;;;5013021;28;20401;-59
2021/06/06 05:40:41;;;;;;;0.30;0.17;;;22.80;48.90;;;;;;5012667;28;20380;-62
2021/06/06 05:43:07;;;;;;;0.80;0.20;;;22.80;48.90;;;;;;5012709;28;20869;-59
2021/06/06 05:45:35;;;;;;;0.30;0.10;;;22.80;49.00;;;;;;5012825;28;20505;-59
2021/06/06 05:48:02;;;;;;;0.32;0.17;;;22.80;48.90;;;;;;5012241;28;20421;-58
2021/06/06 05:50:30;;;;;;;0.20;0.20;;;22.80;48.90;;;;;;5012358;28;20397;-59
2021/06/06 05:52:55;;;;;;;0.23;0.20;;;22.80;48.90;;;;;;5012644;28;20420;-60
2021/06/06 05:55:22;;;;;;;0.30;0.10;;;22.80;49.00;;;;;;5012605;28;20952;-59
2021/06/06 05:57:48;;;;;;;0.50;0.20;;;22.80;48.90;;;;;;5012587;28;20431;-58
2021/06/06 06:00:20;;;;;;;0.38;0.13;;;22.80;49.00;;;;;;5012283;28;20792;-59
2021/06/06 06:02:45;;;;;;;0.32;0.20;;;22.80;49.00;;;;;;5012358;28;20451;-59
2021/06/06 06:05:12;;;;;;;0.17;0.10;;;22.80;49.00;;;;;;5012579;28;20384;-58
2021/06/06 06:07:37;;;;;;;0.30;0.15;;;22.80;49.00;;;;;;5012405;28;20472;-58
2021/06/06 06:10:08;;;;;;;0.57;0.20;;;22.80;49.00;;;;;;5012525;28;20479;-58
2021/06/06 06:12:35;;;;;;;0.32;0.15;;;22.80;49.00;;;;;;5010593;28;20415;-59
2021/06/06 06:15:01;;;;;;;1.83;0.17;;;22.80;48.90;;;;;;5012309;28;20417;-59
2021/06/06 06:17:26;;;;;;;0.55;0.20;;;22.80;49.50;;;;;;5012200;28;20454;-59
2021/06/06 06:19:52;;;;;;;1.13;0.20;;;22.80;49.20;;;;;;5012286;28;20385;-59
2021/06/06 06:22:17;;;;;;;1.90;0.40;;;22.80;48.90;;;;;;5012039;28;20807;-59
2021/06/06 06:24:43;;;;;;;1.70;0.30;;;22.80;49.80;;;;;;5011784;28;20417;-60
2021/06/06 06:27:09;;;;;;;2.50;0.30;;;22.80;49.60;;;;;;5012141;28;20392;-60
2021/06/06 06:29:34;;;;;;;1.00;0.30;;;22.80;49.20;;;;;;5012058;28;20880;-59
2021/06/06 06:32:00;;;;;;;1.10;0.30;;;22.80;49.00;;;;;;5012091;28;20396;-59
2021/06/06 06:34:26;;;;;;;0.90;0.20;;;22.80;49.00;;;;;;5011620;28;20701;-60
2021/06/06 06:36:51;;;;;;;0.90;0.30;;;22.80;49.00;;;;;;5011885;28;20405;-59
2021/06/06 06:39:17;;;;;;;1.23;0.20;;;22.80;49.10;;;;;;5011944;28;20405;-60
2021/06/06 06:41:43;;;;;;;1.55;0.30;;;22.80;49.10;;;;;;5012001;28;20996;-59
2021/06/06 06:44:08;;;;;;;0.70;0.17;;;22.80;49.10;;;;;;5011759;28;20412;-60
2021/06/06 06:46:34;;;;;;;0.60;0.17;;;22.80;49.10;;;;;;5011388;28;20396;-60
2021/06/06 06:49:00;;;;;;;0.65;0.20;;;22.80;49.40;;;;;;5011889;28;20911;-60
2021/06/06 06:51:27;;;;;;;0.97;0.20;;;22.80;49.30;;;;;;5011825;28;20401;-59
2021/06/06 06:53:54;;;;;;;0.50;0.10;;;22.80;49.60;;;;;;5011877;28;20412;-59
2021/06/06 06:56:25;;;;;;;1.60;0.22;;;22.80;49.30;;;;;;5011515;28;20421;-59
2021/06/06 06:58:52;;;;;;;0.40;0.10;;;22.80;49.50;;;;;;5011679;28;20440;-59
2021/06/06 07:01:18;;;;;;;2.35;0.20;;;22.70;50.40;;;;;;5016033;28;20405;-60
2021/06/06 07:03:44;;;;;;;2.42;0.30;;;22.80;50.00;;;;;;5021592;28;20414;-60
2021/06/06 07:06:12;;;;;;;2.43;0.30;;;22.80;50.30;;;;;;5025987;28;20412;-59
2021/06/06 07:08:39;;;;;;;0.70;0.20;;;22.80;50.60;;;;;;5028349;28;20851;-59
2021/06/06 07:11:09;;;;;;;5.20;0.20;;;22.80;50.70;;;;;;5018632;28;20393;-59
2021/06/06 07:13:35;;;;;;;4.20;0.33;;;22.80;51.70;;;;;;5014169;28;20932;-59
2021/06/06 07:16:01;;;;;;;2.40;0.40;;;22.80;51.10;;;;;;5015642;28;20412;-59
2021/06/06 07:18:28;;;;;;;2.13;0.28;;;22.80;51.60;;;;;;5015257;28;20881;-59
2021/06/06 07:20:56;;;;;;;4.90;0.40;;;22.80;51.80;;;;;;5015419;28;20463;-58
2021/06/06 07:23:24;;;;;;;3.50;0.47;;;22.80;52.30;;;;;;5015297;28;20484;-58
2021/06/06 07:25:51;;;;;;;3.35;0.45;;;22.80;51.70;;;;;;5015663;28;20380;-59
2021/06/06 07:28:21;;;;;;;8.10;0.52;;;22.90;52.70;;;;;;5015339;28;20397;-58
2021/06/06 07:30:54;;;;;;;3.50;0.40;;;22.90;54.20;;;;;;5015127;28;20881;-58
2021/06/06 07:33:30;;;;;;;4.35;0.50;;;22.90;53.90;;;;;;5015200;28;20467;-58
2021/06/06 07:35:56;;;;;;;2.20;0.30;;;22.80;53.90;;;;;;5015048;28;20446;-58
2021/06/06 07:38:24;;;;;;;3.20;0.60;;;22.80;54.40;;;;;;5014869;28;20458;-60
2021/06/06 07:40:51;;;;;;;1.95;0.50;;;22.80;54.20;;;;;;5014949;28;20416;-59
2021/06/06 07:43:17;;;;;;;1.90;0.32;;;22.80;54.50;;;;;;5014728;28;20396;-58
2021/06/06 07:45:43;;;;;;;1.95;0.20;;;22.80;53.70;;;;;;5015052;28;20961;-58
2021/06/06 07:48:10;;;;;;;2.80;0.32;;;22.80;54.00;;;;;;5014914;28;20495;-60
2021/06/06 07:50:39;;;;;;;4.07;0.40;;;22.80;53.60;;;;;;5014480;28;20439;-59
2021/06/06 07:53:05;;;;;;;1.60;0.30;;;22.80;53.90;;;;;;5014905;28;20889;-59
2021/06/06 07:55:31;;;;;;;10.07;0.80;;;22.80;53.70;;;;;;5014747;28;20404;-58
2021/06/06 07:57:57;;;;;;;5.88;0.60;;;22.70;53.10;;;;;;5014530;28;20432;-58
2021/06/06 08:00:35;;;;;;;6.05;0.50;;;22.80;53.90;;;;;;5014640;28;20385;-58
2021/06/06 08:03:01;;;;;;;3.13;0.55;;;22.80;53.20;;;;;;5014036;28;20407;-58
2021/06/06 08:05:27;;;;;;;4.97;0.60;;;22.80;53.10;;;;;;5030651;28;20389;-58
2021/06/06 08:07:53;;;;;;;3.30;0.60;;;22.80;53.10;;;;;;5021555;28;20875;-59
2021/06/06 08:10:22;;;;;;;4.57;0.40;;;22.80;53.30;;;;;;5023562;28;20447;-59
2021/06/06 08:12:47;;;;;;;6.60;0.80;;;22.80;52.90;;;;;;5014067;28;20389;-58
2021/06/06 08:15:13;;;;;;;7.63;0.70;;;22.80;52.70;;;;;;5014503;28;20458;-60
2021/06/06 08:17:39;;;;;;;3.95;0.60;;;22.80;52.60;;;;;;5014297;28;20419;-59
2021/06/06 08:20:09;;;;;;;5.80;0.60;;;22.80;52.30;;;;;;5014501;28;20729;-58
2021/06/06 08:22:35;;;;;;;3.13;0.50;;;22.70;52.90;;;;;;5013798;28;20437;-58
2021/06/06 08:25:03;;;;;;;3.40;0.38;;;22.70;52.10;;;;;;5014333;28;20381;-59
2021/06/06 08:27:28;;;;;;;3.05;0.40;;;22.80;52.00;;;;;;5014449;28;20396;-59
2021/06/06 08:29:54;;;;;;;3.13;0.30;;;22.70;51.90;;;;;;5014225;28;20484;-58
2021/06/06 08:32:20;;;;;;;3.77;0.30;;;22.70;51.80;;;;;;5014090;28;20463;-59
2021/06/06 08:34:46;;;;;;;2.15;0.32;;;22.80;51.80;;;;;;5013677;28;20539;-59
2021/06/06 08:37:12;;;;;;;2.17;0.40;;;22.70;51.70;;;;;;5014204;28;20425;-58
2021/06/06 08:39:38;;;;;;;3.03;0.47;;;22.70;51.70;;;;;;5013823;28;20391;-58
2021/06/06 08:42:10;;;;;;;2.17;0.50;;;22.70;51.60;;;;;;5013903;28;20393;-58
2021/06/06 08:44:44;;;;;;;2.67;0.40;;;22.70;51.40;;;;;;5013229;28;20421;-60
2021/06/06 08:47:21;;;;;;;1.13;0.40;;;22.70;51.50;;;;;;5013885;28;20476;-58
2021/06/06 08:49:52;;;;;;;1.67;0.40;;;22.70;51.20;;;;;;5013731;28;20408;-58
2021/06/06 08:52:43;;;;;;;0.82;0.30;;;22.70;51.20;;;;;;5013865;28;20404;-59
2021/06/06 08:55:33;;;;;;;1.58;0.40;;;22.70;51.20;;;;;;5013798;28;20912;-58
2021/06/06 08:58:40;;;;;;;1.83;0.30;;;22.70;51.00;;;;;;5013662;28;20816;-58
2021/06/06 09:01:11;;;;;;;1.20;0.30;;;22.70;51.00;;;;;;5013328;28;20389;-58
2021/06/06 09:03:38;;;;;;;1.30;0.30;;;22.70;50.90;;;;;;5013610;28;20487;-58
2021/06/06 09:06:08;;;;;;;1.30;0.30;;;22.70;50.90;;;;;;5013679;28;20443;-58
2021/06/06 09:08:38;;;;;;;1.58;0.32;;;22.70;51.00;;;;;;5013284;28;20885;-58
2021/06/06 09:11:08;;;;;;;1.20;0.30;;;22.70;50.90;;;;;;5013431;28;20753;-58
2021/06/06 09:13:34;;;;;;;1.33;0.30;;;22.70;50.70;;;;;;5013380;28;20388;-58
2021/06/06 09:16:30;;;;;;;1.20;0.40;;;22.80;50.70;;;;;;5013278;28;20397;-59
2021/06/06 09:19:14;;;;;;;1.60;0.40;;;22.70;50.80;;;;;;5013122;28;20951;-59
2021/06/06 09:22:02;;;;;;;0.90;0.20;;;22.70;50.40;;;;;;5013347;28;20420;-58
2021/06/06 09:24:37;;;;;;;0.80;0.40;;;22.70;50.60;;;;;;5012361;28;20393;-58
2021/06/06 09:27:26;;;;;;;0.63;0.40;;;22.70;50.40;;;;;;5013176;28;20412;-58
2021/06/06 09:30:15;;;;;;;1.33;0.40;;;22.70;50.40;;;;;;5005232;28;20397;-58
2021/06/06 09:32:42;;;;;;;2.25;0.40;;;22.70;50.50;;;;;;5012643;28;20395;-58
2021/06/06 09:35:31;;;;;;;1.05;0.32;;;22.70;50.30;;;;;;5013034;28;20392;-58
2021/06/06 09:38:14;;;;;;;1.10;0.30;;;22.80;50.30;;;;;;5012761;28;20424;-58
2021/06/06 09:40:44;;;;;;;0.88;0.45;;;22.80;50.90;;;;;;5012400;28;20389;-58
2021/06/06 09:43:28;;;;;;;1.00;0.30;;;22.70;50.10;;;;;;5011449;28;20397;-58
2021/06/06 09:46:12;;;;;;;0.45;0.30;;;22.70;50.80;;;;;;5011537;28;20400;-58
2021/06/06 09:48:43;;;;;;;1.20;0.30;;;22.70;50.30;;;;;;5012444;28;20491;-58
2021/06/06 09:51:11;;;;;;;0.50;0.30;;;22.80;50.30;;;;;;5012604;28;20408;-58
2021/06/06 09:53:38;;;;;;;0.77;0.30;;;22.70;50.30;;;;;;5012627;28;20462;-61
2021/06/06 09:56:21;;;;;;;4.50;0.60;;;22.70;50.30;;;;;;5012633;28;20404;-58
2021/06/06 09:58:48;;;;;;;5.55;0.80;;;22.70;50.30;;;;;;5012245;28;20407;-59
2021/06/06 10:01:20;;;;;;;3.38;0.55;;;22.70;51.00;;;;;;5012454;28;20734;-59
2021/06/06 10:04:16;;;;;;;2.63;0.50;;;22.70;50.90;;;;;;5012430;28;20400;-59
2021/06/06 10:06:44;;;;;;;3.83;0.50;;;22.70;51.40;;;;;;5012016;28;20916;-58
2021/06/06 10:09:25;;;;;;;2.00;0.43;;;22.70;51.70;;;;;;5012403;28;20405;-59
2021/06/06 10:12:09;;;;;;;3.15;0.47;;;22.70;52.40;;;;;;5012425;28;20424;-58
2021/06/06 10:14:42;;;;;;;3.67;0.60;;;22.80;53.10;;;;;;5012050;28;20408;-58
2021/06/06 10:17:12;;;;;;;4.57;0.70;;;22.90;53.20;;;;;;5012296;28;20423;-58
2021/06/06 10:19:54;;;;;;;4.63;0.60;;;23.00;53.60;;;;;;5012185;28;20377;-58
2021/06/06 10:22:28;;;;;;;1.75;0.50;;;23.10;53.60;;;;;;5012036;28;20488;-58
2021/06/06 10:25:08;;;;;;;2.65;0.60;;;23.20;53.50;;;;;;5011874;28;20393;-60
2021/06/06 10:27:41;;;;;;;3.45;0.70;;;23.30;53.50;;;;;;5012278;28;20492;-59
2021/06/06 10:30:11;;;;;;;1.73;0.60;;;23.30;53.70;;;;;;5012013;28;20431;-58
2021/06/06 10:32:43;;;;;;;3.08;0.80;;;23.40;53.90;;;;;;5011708;28;20401;-59
2021/06/06 10:35:17;;;;;;;2.70;0.50;;;23.40;53.90;;;;;;5011879;28;20993;-58
2021/06/06 10:37:46;;;;;;;1.98;0.50;;;23.50;54.00;;;;;;5011860;28;20426;-58
2021/06/06 10:40:39;;;;;;;3.00;0.60;;;23.50;54.00;;;;;;5011899;28;20793;-60
2021/06/06 10:43:40;;;;;;;6.38;2.85;;;23.60;54.10;;;;;;5011803;28;20389;-59
2021/06/06 10:46:19;;;;;;;2.70;1.42;;;23.80;53.70;;;;;;5011802;28;20396;-59
2021/06/06 10:49:05;;;;;;;2.80;1.40;;;23.70;53.10;;;;;;5011441;28;20798;-59
2021/06/06 10:51:34;;;;;;;3.17;2.88;;;23.70;53.20;;;;;;5011854;28;20395;-59
2021/06/06 10:54:21;;;;;;;3.33;1.60;;;23.90;53.70;;;;;;5011699;28;20900;-64
2021/06/06 10:56:46;;;;;;;4.18;1.42;;;24.10;52.60;;;;;;5009966;28;20416;-58
2021/06/06 10:59:12;;;;;;;7.47;1.00;;;24.30;52.00;;;;;;5011609;28;20962;-58
2021/06/06 11:01:44;;;;;;;5.63;0.87;;;24.40;51.70;;;;;;5011673;28;20385;-59
2021/06/06 11:04:18;;;;;;;5.03;0.80;;;24.30;51.90;;;;;;5011631;28;20403;-58
2021/06/06 11:06:48;;;;;;;4.50;0.50;;;24.20;52.10;;;;;;5011271;28;20392;-58
2021/06/06 11:09:27;;;;;;;4.05;0.63;;;24.00;52.30;;;;;;5010315;28;20790;-59
2021/06/06 11:12:12;;;;;;;3.05;0.40;;;23.90;52.80;;;;;;5009166;28;20861;-61
2021/06/06 11:14:47;;;;;;;1.63;0.30;;;23.80;52.60;;;;;;5008780;28;20385;-58
2021/06/06 11:17:35;;;;;;;2.53;0.50;;;23.70;52.60;;;;;;5010429;28;21067;-64
2021/06/06 11:20:13;;;;;;;2.25;0.40;;;23.70;52.50;;;;;;5009253;28;21153;-65
2021/06/06 11:22:45;;;;;;;2.58;0.55;;;23.60;52.40;;;;;;5009099;28;20861;-64
2021/06/06 11:25:48;;;;;;;3.13;0.50;;;23.60;52.30;;;;;;5008163;28;20484;-65
2021/06/06 11:28:36;;;;;;;2.47;0.60;;;23.60;52.20;;;;;;5009936;28;20389;-59
2021/06/06 11:31:19;;;;;;;2.15;0.40;;;23.50;51.90;;;;;;5008521;28;21178;-59
2021/06/06 11:33:57;;;;;;;3.40;0.50;;;23.50;51.20;;;;;;5010573;28;20455;-59
2021/06/06 11:36:37;;;;;;;2.40;0.40;;;23.40;50.90;;;;;;5010678;28;20412;-58
2021/06/06 11:39:28;;;;;;;1.30;0.30;;;23.40;51.00;;;;;;5010120;28;21194;-58
2021/06/06 11:41:55;;;;;;;1.20;0.25;;;23.40;51.40;;;;;;5009261;28;20403;-59
2021/06/06 11:44:25;;;;;;;1.13;0.30;;;23.30;51.60;;;;;;5010971;28;20417;-59
2021/06/06 11:47:08;;;;;;;1.08;0.25;;;23.30;51.20;;;;;;5010079;28;20471;-59
2021/06/06 11:49:40;;;;;;;1.00;0.32;;;23.30;51.80;;;;;;5012838;28;20543;-58
2021/06/06 11:52:14;;;;;;;2.15;0.30;;;23.30;51.50;;;;;;5014600;28;20377;-58
2021/06/06 11:54:47;;;;;;;2.72;0.20;;;23.20;51.60;;;;;;5014259;28;20400;-59
2021/06/06 11:57:42;;;;;;;1.48;0.30;;;23.20;51.70;;;;;;5014947;28;20412;-59
2021/06/06 12:00:13;;;;;;;0.98;0.20;;;23.20;51.70;;;;;;5014263;28;20880;-59
2021/06/06 12:02:40;;;;;;;3.00;0.43;;;23.20;51.40;;;;;;5014320;28;20470;-58
2021/06/06 12:05:20;;;;;;;1.95;0.30;;;23.20;51.10;;;;;;5013300;28;20468;-60
2021/06/06 12:07:49;;;;;;;1.70;0.40;;;23.20;51.20;;;;;;5012522;28;20404;-64
2021/06/06 12:10:35;;;;;;;2.30;0.60;;;23.20;51.60;;;;;;5010725;28;20404;-59
2021/06/06 12:13:05;;;;;;;3.92;0.57;;;23.20;52.70;;;;;;5011485;28;20401;-58
2021/06/06 12:15:37;;;;;;;3.08;0.43;;;23.30;52.20;;;;;;5011799;28;20400;-59
2021/06/06 12:18:33;;;;;;;3.70;0.40;;;23.30;52.60;;;;;;5013119;28;20447;-60
2021/06/06 12:21:12;;;;;;;1.10;0.40;;;23.30;53.00;;;;;;5006197;28;20878;-60
2021/06/06 12:23:46;;;;;;;1.17;0.30;;;23.30;53.10;;;;;;5012190;28;20400;-62
2021/06/06 12:26:17;;;;;;;1.95;0.38;;;23.30;53.10;;;;;;5012916;28;20389;-63
2021/06/06 12:28:48;;;;;;;1.27;0.28;;;23.30;51.90;;;;;;5012966;28;20389;-58
2021/06/06 12:31:34;;;;;;;0.93;0.20;;;23.30;51.60;;;;;;5012911;28;20484;-59
2021/06/06 12:34:28;;;;;;;2.20;0.40;;;23.30;51.60;;;;;;5010836;28;20389;-58
2021/06/06 12:37:26;;;;;;;4.80;0.60;;;23.20;52.10;;;;;;5012245;28;20413;-58
2021/06/06 12:39:55;;;;;;;2.73;0.60;;;23.30;57.10;;;;;;5002904;28;20514;-59
2021/06/06 12:42:23;;;;;;;4.05;0.73;;;23.30;57.30;;;;;;5012200;28;20393;-59
2021/06/06 12:44:52;;;;;;;4.65;0.50;;;23.30;56.80;;;;;;5011681;28;20404;-59
2021/06/06 12:47:34;;;;;;;3.88;0.60;;;23.40;55.80;;;;;;5012012;28;20817;-58
2021/06/06 12:50:01;;;;;;;6.72;0.77;;;23.40;56.30;;;;;;5012049;28;20451;-62
2021/06/06 12:52:41;;;;;;;3.55;0.50;;;23.40;56.30;;;;;;5012291;28;20424;-58
2021/06/06 12:55:31;;;;;;;3.85;0.70;;;23.40;55.80;;;;;;5009924;28;20869;-59
2021/06/06 12:58:02;;;;;;;3.72;0.60;;;23.40;55.20;;;;;;5011553;28;20432;-58
2021/06/06 13:00:34;;;;;;;3.47;0.50;;;23.40;54.60;;;;;;5010230;28;20479;-58
2021/06/06 13:03:18;;;;;;;1.80;0.40;;;23.40;54.30;;;;;;5010362;28;20408;-59
2021/06/06 13:05:47;;;;;;;2.60;0.43;;;23.40;54.20;;;;;;5009560;28;20443;-65
2021/06/06 13:08:35;;;;;;;3.28;0.50;;;23.40;54.10;;;;;;5012279;28;20389;-58
2021/06/06 13:11:08;;;;;;;2.80;0.40;;;23.40;53.90;;;;;;5011239;28;20418;-59
2021/06/06 13:13:42;;;;;;;1.73;0.50;;;23.40;53.60;;;;;;5012040;28;20892;-59